Valle Toledo, Valles Caldera, New Mexico Weather observations

Data are for 10 minute period ending at time listed.
 Day   Time   Solar   Ave.   Ave.  Ave.  Vector  Max.   Baro.   Total    
  of    of     Rad.   Air    Rel.  Wind   Wind   Wind  Press.  Precip.   
Year   Day            Temp.  Hum.  Speed  Dir.   Gust                    
2016   (MST)  Kw/m2    F      %     mph   deg.    mph    mb.     in.     
-------------------------------------------------------------------------
 207   18:30   0.04   62.2    63    1.1     2     3.6   738.4    0.00 
 207   18:40   0.05   60.7    65    1.8    30     4.8   738.4    0.00 
 207   18:50   0.04   60.3    65    0.7    41     3.6   738.4    0.00 
 207   19:00   0.02   59.0    69    3.0    39     4.8   738.3    0.00 
 207   19:10   0.01   58.0    70    1.0    34     3.0   738.3    0.00 
 207   19:20   0.00   57.5    72    2.8    34     4.2   738.4    0.00 
 207   19:30   0.00   57.0    73    2.8    23     4.2   738.5    0.00 
 207   19:40   0.00   56.6    73    4.1    37     5.4   738.6    0.00 
 207   19:50   0.00   56.1    73    4.0    33     5.4   738.5    0.00 
 207   20:00   0.00   55.9    72    4.2    38     4.8   738.4    0.00 
 207   20:10   0.00   55.9    71    4.6    36     5.4   738.4    0.00 
 207   20:20   0.00   55.6    74    2.8    44     4.8   738.6    0.00 
 207   20:30   0.00   55.2    75    4.4    45     5.4   738.9    0.00 
 207   20:40   0.00   56.3    72    3.6    57     4.8   739.0    0.00 
 207   20:50   0.00   56.7    71    3.0    34     6.0   739.0    0.00 
 207   21:00   0.00   56.4    72    2.6    53     4.8   739.1    0.00 
 207   21:10   0.00   55.8    75    0.8    73     3.0   739.4    0.00 
 207   21:20   0.00   55.8    73    2.9    16     4.2   739.6    0.00 
 207   21:30   0.00   55.4    73    2.8    21     4.2   739.6    0.00 
 207   21:40   0.00   55.5    73    4.0    36     4.8   739.4    0.00 
 207   21:50   0.00   55.2    76    3.3    46     4.8   739.3    0.00 
 207   22:00   0.00   55.0    79    0.4    63     3.0   739.5    0.00 
 207   22:10   0.00   54.7    78    3.7    38     4.8   739.5    0.00 
 207   22:20   0.00   54.5    76    2.8    30     4.2   739.4    0.00 
 207   22:30   0.00   54.7    75    2.9    35     4.2   739.4    0.00 
 207   22:40   0.00   54.8    74    1.4    49     3.6   739.4    0.00 
 207   22:50   0.00   54.9    74    3.2    39     4.2   739.3    0.00 
 207   23:00   0.00   54.9    73    3.9    41     4.8   739.3    0.00 
 207   23:10   0.00   54.6    73    2.1    38     4.2   739.3    0.00 
 207   23:20   0.00   54.5    73    0.2    30     4.2   739.3    0.00 
 207   23:30   0.00   54.4    74    3.0    30     4.2   739.2    0.00 
 207   23:40   0.00   54.5    74    1.5    48     4.2   739.1    0.00 
 207   23:50   0.00   54.8    76    3.0    89     4.8   739.2    0.00 
 208    0:00   0.00   54.9    76    1.4    95     6.0   739.2    0.00 
 208    0:10   0.00   54.2    78    2.4   128     4.8   739.3    0.00 
 208    0:20   0.00   55.0    76    2.3   108     4.2   739.4    0.00 
 208    0:30   0.00   55.7    74    3.8   130    10.8   739.4    0.00 
 208    0:40   0.00   54.3    78    3.0    92     4.2   739.4    0.00 
 208    0:50   0.00   54.0    80    4.6   120     7.2   739.4    0.00 
 208    1:00   0.00   54.4    81    5.0   132     7.8   739.4    0.00 
 208    1:10   0.00   54.3    82    3.3   114     7.2   739.5    0.00 
 208    1:20   0.00   54.0    82    2.3   102     3.6   739.5    0.00 
 208    1:30   0.00   53.1    83    2.1    48     3.6   739.4    0.00 
 208    1:40   0.00   52.2    85    2.2    24     3.6   739.3    0.00 
 208    1:50   0.00   52.1    87    0.8    36     2.4   739.3    0.00 
 208    2:00   0.00   52.6    87    2.6    70     4.8   739.1    0.00 
 208    2:10   0.00   53.3    84    0.8    54     3.0   739.0    0.00 
 208    2:20   0.00   52.8    86    0.6    69     1.8   739.1    0.00 
 208    2:30   0.00   52.7    87    0.3    72     3.0   739.1    0.00 
 208    2:40   0.00   52.6    86    1.4    50     3.0   739.0    0.00 
 208    2:50   0.00   52.2    86    0.0     0     0.0   738.9    0.00 
 208    3:00   0.00   51.9    87    0.1    28     1.8   738.9    0.00 
 208    3:10   0.00   51.6    87    1.0    36     2.4   738.9    0.00 
 208    3:20   0.00   51.5    88    0.1    58     1.2   738.8    0.00 
 208    3:30   0.00   51.4    88    1.6    44     3.6   738.7    0.00 
 208    3:40   0.00   51.0    88    0.7    34     3.0   738.7    0.00 
 208    3:50   0.00   50.8    88    1.7    28     2.4   738.6    0.00 
 208    4:00   0.00   50.4    88    1.6    39     3.0   738.6    0.00 
 208    4:10   0.00   50.2    88    2.6    38     3.6   738.5    0.00 
 208    4:20   0.00   49.8    88    2.3    35     3.0   738.5    0.00 
 208    4:30   0.00   49.5    88    2.0    46     3.0   738.5    0.00 
 208    4:40   0.00   49.1    87    2.5    38     3.6   738.5    0.00 
 208    4:50   0.00   49.0    88    2.3    36     3.0   738.5    0.00 
 208    5:00   0.00   48.8    88    2.2    33     3.6   738.4    0.00 
 208    5:10   0.00   48.4    88    2.5    38     3.6   738.3    0.00 
 208    5:20   0.00   48.2    87    1.8    32     3.0   738.3    0.00 
 208    5:30   0.01   48.1    86    2.1    43     3.6   738.4    0.00 
 208    5:40   0.01   48.2    86    2.7    39     3.6   738.5    0.00 
 208    5:50   0.02   48.2    87    2.9    34     3.6   738.5    0.00 
 208    6:00   0.03   48.5    86    1.0    42     2.4   738.6    0.00 
 208    6:10   0.03   48.8    86    1.8    41     3.6   738.7    0.00 
 208    6:20   0.04   49.1    87    0.6    37     2.4   738.8    0.00 
 208    6:30   0.17   50.8    85    1.5    29     3.6   739.0    0.00 
 208    6:40   0.21   54.0    75    0.5     8     3.0   739.0    0.00 
 208    6:50   0.24   56.6    68    0.7    36     3.0   739.0    0.00 
 208    7:00   0.27   58.0    67    0.6    47     3.0   739.0    0.00 
 208    7:10   0.31   61.4    63    0.0     0     0.0   739.1    0.00 
 208    7:20   0.34   62.9    60    0.0     0     0.0   739.2    0.00 
 208    7:30   0.37   60.2    68    0.9   139     3.0   739.4    0.00 
 208    7:40   0.40   62.4    58    0.0   183     1.2   739.4    0.00 
 208    7:50   0.43   63.2    56    0.0     0     0.0   739.4    0.00 
 208    8:00   0.46   62.5    57    2.7   241     5.4   739.4    0.00 
 208    8:10   0.49   64.4    54    3.1   304     4.8   739.4    0.00 
 208    8:20   0.52   66.9    50    2.3   279     6.0   739.3    0.00 
 208    8:30   0.55   64.8    54    2.7   237     6.0   739.3    0.00 
 208    8:40   0.58   65.9    51    2.9   231     7.2   739.1    0.00 
 208    8:50   0.61   66.4    50    3.7   257     6.0   739.2    0.00 
 208    9:00   0.65   67.0    50    3.0   274     4.8   739.1    0.00 
 208    9:10   0.68   68.6    48    2.6   145     5.4   739.0    0.00 
 208    9:20   0.72   68.6    48    3.2   177     6.0   739.0    0.00 
 208    9:30   0.75   68.5    46    3.8   192     7.2   738.9    0.00 
 208    9:40   0.79   68.9    46    4.4   336     9.0   739.0    0.00 
 208    9:50   0.70   69.6    45    3.5   167     7.2   738.9    0.00 
 208   10:00   0.53   69.6    45    4.1   301     8.4   738.8    0.00 
 208   10:10   0.87   70.7    43    3.9   259     8.4   738.7    0.00 
 208   10:20   0.78   73.1    38    4.6   335     9.6   738.7    0.00 
 208   10:30   0.90   74.0    35    4.0    20     9.0   738.6    0.00 
 208   10:40   0.91   75.7    32    3.0    23     7.8   738.5    0.00 
 208   10:50   0.93   73.9    35    4.3    42    10.2   738.3    0.00 
 208   11:00   0.93   73.2    35    4.1   146     9.6   738.2    0.00 
 208   11:10   0.63   73.6    33    3.8   359     7.2   738.3    0.00 
 208   11:20   0.60   72.1    37    4.9   166     9.0   738.2    0.00 
 208   11:30   0.25   71.0    38    3.2   227     6.0   738.1    0.00 
 208   11:40   0.25   69.9    39    3.6   220     6.6   738.1    0.00 
 208   11:50   0.71   70.4    39    3.6   220     5.4   738.0    0.00 
 208   12:00   1.00   72.7    36    5.7   138    10.2   737.9    0.00 
 208   12:10   0.80   73.4    40    8.0   131    12.5   737.7    0.00 
 208   12:20   0.33   71.7    40    5.8    82    10.2   737.7    0.00 
 208   12:30   0.13   70.2    41    4.6   143     7.8   737.7    0.00 
 208   12:40   0.07   68.8    42    4.7   109     9.0   737.6    0.00 
 208   12:50   0.07   67.2    54    2.6    75     6.6   737.8    0.04 
 208   13:00   0.07   62.2    73    3.4   106     7.2   737.8    0.06 
 208   13:10   0.07   59.1    83    3.7    73     7.2   737.8    0.01 
 208   13:20   0.07   58.5    82    4.7    88     6.0   737.6    0.01 
 208   13:30   0.06   58.6    82    3.5    49     5.4   737.7    0.00 
 208   13:40   0.11   59.2    84    2.7   345     6.0   737.5    0.00 
 208   13:50   0.09   59.8    81    0.2   307     2.4   737.5    0.00 
 208   14:00   0.06   59.6    84    0.5    66     4.8   737.5    0.00 
 208   14:10   0.05   59.3    82    0.4   310     3.0   737.6    0.00 
 208   14:20   0.04   59.0    82    0.0     0     0.0   737.7    0.00 
 208   14:30   0.04   59.0    80    0.0     0     0.0   737.9    0.00 
 208   14:40   0.04   58.9    79    0.0    14     1.2   737.9    0.00 
 208   14:50   0.04   58.7    81    0.4   255     3.6   737.9    0.00 
 208   15:00   0.04   58.4    80    0.1   340     3.0   738.0    0.00 
 208   15:10   0.05   58.0    79    2.1    30     5.4   737.9    0.00 
 208   15:20   0.06   58.3    73    1.4    37     4.8   737.8    0.00 
 208   15:30   0.09   58.9    76    0.3   131     3.6   737.7    0.00 
 208   15:40   0.12   58.4    82    2.7    73     4.8   737.7    0.00 
 208   15:50   0.14   58.6    78    0.3    46     4.2   737.6    0.00 
 208   16:00   0.15   59.2    80    0.1    61     2.4   737.5    0.01 
 208   16:10   0.16   59.8    79    0.3   298     3.0   737.3    0.00 
 208   16:20   0.22   61.1    74    0.2    35     2.4   737.2    0.00 
 208   16:30   0.19   61.6    76    0.2   151     3.0   737.1    0.00 
 208   16:40   0.11   60.6    80    0.5   190     3.0   737.1    0.00 
 208   16:50   0.11   60.9    80    0.1   316     3.0   737.2    0.00 
 208   17:00   0.09   60.6    80    0.0   251     1.2   737.2    0.00 
 208   17:10   0.08   60.2    78    0.5   228     3.6   737.3    0.00 
 208   17:20   0.07   59.8    75    0.0     0     0.0   737.5    0.00 
 208   17:30   0.06   59.7    76    0.0     0     0.0   737.5    0.00 
 208   17:40   0.08   59.8    74    0.1   309     2.4   737.6    0.00 
 208   17:50   0.08   59.6    76    0.0     0     0.0   737.7    0.00 
 208   18:00   0.06   59.5    77    0.0   324     2.4   737.7    0.00 
 208   18:10   0.03   59.1    76    0.0     0     0.0   737.7    0.00 
 208   18:20   0.02   59.0    76    0.1   308     2.4   737.8    0.00 

Return to Valle Toledo, Valles Caldera graphs page.


Western Regional Climate Center,wrcc@dri.edu